Cranfield, Mississippi
Current Conditions -  °F | °C
As of 7:55 AM on Monday 22 Dec 2014 (Local Time) from KHEZ Reporting Station
Overcast Overcast  
Wind Chill: 55°   Ceiling: 300
Heat Index: 55°   Visibility: 1.2mi
Dew Point: 54°   Wind: 8mph
Humidity: 94%   Direction: 160°SSE
Pressure: 29.82"   Gusts: NA
Location:  31.4774°N, 91.0619°W
Report Text: KHEZ 221355Z AUTO 16007KT 1 1/4SM OVC003 13/12 A2982 RMK AO1
Loading
Personal Weather Stations






























Interactive Weather Map New forecast layout! Learn more

10-Day Weather Forecast

Advertisements
Track Severe Weather on mobile